Time;durP1;ratioP1;P1;durP2;ratioP2;P2;SDS_P1;SDS_P2;PMS_P1;PMS_P2;Temp;Humidity;BMP_temperature;BMP_pressure;BME280_temperature;BME280_humidity;BME280_pressure;Samples;Min_cycle;Max_cycle;Signal;HPM_P1;HPM_P2
2022/03/11 00:01:09;;;;;;;23.00;11.53;;;9.60;99.90;;;;;;4071161;29;20172;-93
2022/03/11 00:03:10;;;;;;;22.27;11.43;;;9.60;99.90;;;;;;4071422;29;20171;-94
2022/03/11 00:05:11;;;;;;;24.40;11.93;;;9.50;99.90;;;;;;4102665;28;20293;-94
2022/03/11 00:07:12;;;;;;;20.87;11.63;;;9.50;99.90;;;;;;4070823;29;20200;-92
2022/03/11 00:09:13;;;;;;;28.73;11.93;;;9.40;99.90;;;;;;4070925;29;20271;-93
2022/03/11 00:11:13;;;;;;;19.67;10.90;;;9.40;99.90;;;;;;4086736;29;20190;-93
2022/03/11 00:13:14;;;;;;;20.93;11.60;;;9.40;99.90;;;;;;4086703;29;20255;-93
2022/03/11 00:15:15;;;;;;;24.63;11.27;;;9.40;99.90;;;;;;4070652;29;20196;-93
2022/03/11 00:17:15;;;;;;;20.27;10.53;;;9.40;99.90;;;;;;4086753;29;20179;-93
2022/03/11 00:19:16;;;;;;;20.83;11.57;;;9.40;99.90;;;;;;4086397;29;20207;-91
2022/03/11 00:21:17;;;;;;;21.43;10.50;;;9.30;99.90;;;;;;4070821;29;20609;-94
2022/03/11 00:23:18;;;;;;;19.40;10.33;;;9.20;99.90;;;;;;4086331;29;20175;-93
2022/03/11 00:25:19;;;;;;;17.20;10.13;;;9.20;99.90;;;;;;4070071;29;20200;-93
2022/03/11 00:27:20;;;;;;;18.40;10.47;;;9.20;99.90;;;;;;4071176;29;20176;-94
2022/03/11 00:29:21;;;;;;;23.97;10.23;;;9.10;99.90;;;;;;4086342;29;20180;-93
2022/03/11 00:31:22;;;;;;;17.13;9.53;;;9.10;99.90;;;;;;4070239;29;20172;-91
2022/03/11 00:33:22;;;;;;;19.33;10.10;;;9.20;99.90;;;;;;4086035;29;20656;-93
2022/03/11 00:35:23;;;;;;;25.17;10.17;;;9.20;99.90;;;;;;4085796;29;20556;-94
2022/03/11 00:37:24;;;;;;;18.97;9.73;;;9.10;99.90;;;;;;4085956;29;20176;-93
2022/03/11 00:39:25;;;;;;;19.53;10.53;;;9.10;99.90;;;;;;4070242;29;20212;-93
2022/03/11 00:41:25;;;;;;;19.63;10.30;;;9.10;99.90;;;;;;4086329;29;20180;-91
2022/03/11 00:43:27;;;;;;;19.63;9.37;;;9.00;99.90;;;;;;4070568;29;20176;-93
2022/03/11 00:45:28;;;;;;;18.23;9.70;;;9.00;99.90;;;;;;4085983;29;20302;-94
2022/03/11 00:47:29;;;;;;;18.80;8.97;;;8.80;99.90;;;;;;4086331;29;20223;-90
2022/03/11 00:49:29;;;;;;;19.53;8.90;;;8.80;99.90;;;;;;4070333;29;20184;-93
2022/03/11 00:51:30;;;;;;;18.87;9.47;;;8.80;99.90;;;;;;4070025;29;20278;-90
2022/03/11 00:53:31;;;;;;;19.20;8.60;;;8.80;99.90;;;;;;4069892;29;20681;-92
2022/03/11 00:55:32;;;;;;;18.10;8.57;;;8.70;99.90;;;;;;4069728;29;20248;-91
2022/03/11 00:57:32;;;;;;;18.57;9.30;;;8.70;99.90;;;;;;4070151;29;20180;-90
2022/03/11 00:59:33;;;;;;;18.03;9.40;;;8.70;99.90;;;;;;4070098;29;20223;-93
2022/03/11 01:01:34;;;;;;;15.27;7.53;;;8.70;99.90;;;;;;4086290;29;20207;-92
2022/03/11 01:03:34;;;;;;;15.33;8.13;;;8.60;99.90;;;;;;4086061;29;20250;-93
2022/03/11 01:05:37;;;;;;;18.73;8.90;;;8.60;99.90;;;;;;4085816;29;20213;-92
2022/03/11 01:07:38;;;;;;;18.43;9.33;;;8.60;99.90;;;;;;4069960;29;20207;-93
2022/03/11 01:09:38;;;;;;;15.27;7.90;;;8.70;99.90;;;;;;4085766;29;20176;-93
2022/03/11 01:11:39;;;;;;;14.67;7.93;;;8.70;99.90;;;;;;4085890;29;20195;-93
2022/03/11 01:13:40;;;;;;;14.23;7.87;;;8.70;99.90;;;;;;4070186;29;20223;-90
2022/03/11 01:15:41;;;;;;;12.87;7.47;;;8.60;99.90;;;;;;4085688;29;20210;-92
2022/03/11 01:17:41;;;;;;;15.67;8.47;;;8.70;99.90;;;;;;4085993;29;20180;-91
2022/03/11 01:19:42;;;;;;;15.53;8.87;;;8.70;99.90;;;;;;4070149;29;20223;-93
2022/03/11 01:21:43;;;;;;;14.77;8.50;;;8.70;99.90;;;;;;4085566;29;20304;-90
2022/03/11 01:23:44;;;;;;;16.10;8.00;;;8.70;99.90;;;;;;4085716;29;20269;-90
2022/03/11 01:25:44;;;;;;;15.67;8.47;;;8.70;99.90;;;;;;4069471;29;20196;-92
2022/03/11 01:27:45;;;;;;;16.67;8.30;;;8.60;99.90;;;;;;4085587;29;20266;-90
2022/03/11 01:29:46;;;;;;;15.07;7.70;;;8.70;99.90;;;;;;4069676;29;20183;-91
2022/03/11 01:31:46;;;;;;;16.63;7.93;;;8.60;99.90;;;;;;4085302;29;20510;-92
2022/03/11 01:33:47;;;;;;;15.13;7.73;;;8.60;99.90;;;;;;4085720;29;20667;-90
2022/03/11 01:35:48;;;;;;;16.13;7.93;;;8.60;99.90;;;;;;4069217;29;20203;-91
2022/03/11 01:37:49;;;;;;;12.87;7.40;;;8.60;99.90;;;;;;4069751;29;20271;-92
2022/03/11 01:39:50;;;;;;;13.00;7.07;;;8.60;99.90;;;;;;4069517;29;20216;-92
2022/03/11 01:41:50;;;;;;;11.90;6.80;;;8.60;99.90;;;;;;4085321;29;20183;-93
2022/03/11 01:44:03;;;;;;;13.63;7.33;;;8.60;99.90;;;;;;4069365;29;20303;-92
2022/03/11 01:46:03;;;;;;;13.20;6.97;;;8.50;99.90;;;;;;4069421;29;20218;-91
2022/03/11 01:48:04;;;;;;;15.50;7.07;;;8.50;99.90;;;;;;4069446;29;20721;-91
2022/03/11 01:50:06;;;;;;;12.20;7.13;;;8.50;99.90;;;;;;4068991;29;20629;-90
2022/03/11 01:52:06;;;;;;;15.20;7.73;;;8.50;99.90;;;;;;4069484;29;20169;-94
2022/03/11 01:54:10;;;;;;;15.43;7.57;;;8.50;99.90;;;;;;4084886;29;20286;-92
2022/03/11 01:56:12;;;;;;;14.97;7.23;;;8.40;99.90;;;;;;4069073;29;20200;-90
2022/03/11 01:58:13;;;;;;;14.83;7.07;;;8.40;99.90;;;;;;4069256;29;20188;-91
2022/03/11 02:00:14;;;;;;;15.17;7.30;;;8.30;99.90;;;;;;4069302;29;20216;-92
2022/03/11 02:02:15;;;;;;;13.30;7.00;;;8.40;99.90;;;;;;4085207;29;20168;-92
2022/03/11 02:04:15;;;;;;;16.90;7.07;;;8.30;99.90;;;;;;4068273;29;20176;-92
2022/03/11 02:06:18;;;;;;;12.30;6.67;;;8.30;99.90;;;;;;4069151;29;20280;-90
2022/03/11 02:08:19;;;;;;;16.97;6.93;;;8.30;99.90;;;;;;4100408;28;20182;-92
2022/03/11 02:10:20;;;;;;;10.67;6.23;;;8.30;99.90;;;;;;4084698;29;20179;-92
2022/03/11 02:12:32;;;;;;;13.73;5.93;;;8.30;99.90;;;;;;4068662;29;20255;-90
2022/03/11 02:14:33;;;;;;;11.87;6.40;;;8.30;99.90;;;;;;4068722;29;20225;-92
2022/03/11 02:16:39;;;;;;;10.30;5.80;;;8.30;99.90;;;;;;4068929;29;20212;-93
2022/03/11 02:18:40;;;;;;;10.67;6.23;;;8.20;99.90;;;;;;4069264;29;20184;-93
2022/03/11 02:20:41;;;;;;;12.30;6.20;;;8.30;99.90;;;;;;4068904;29;20183;-90
2022/03/11 02:22:45;;;;;;;11.57;6.43;;;8.30;99.90;;;;;;4068676;29;20180;-92
2022/03/11 02:24:45;;;;;;;11.50;6.47;;;8.20;99.90;;;;;;4084720;29;20199;-92
2022/03/11 02:26:46;;;;;;;10.23;5.37;;;8.30;99.90;;;;;;4084676;29;20202;-92
2022/03/11 02:28:49;;;;;;;11.57;6.53;;;8.30;99.90;;;;;;4068878;29;20196;-92
2022/03/11 02:30:49;;;;;;;10.57;5.60;;;8.30;99.90;;;;;;4068801;29;20246;-92
2022/03/11 02:32:50;;;;;;;10.90;6.37;;;8.30;99.90;;;;;;4068744;29;20171;-92
2022/03/11 02:34:51;;;;;;;10.67;6.00;;;8.30;99.90;;;;;;4068728;29;20208;-93
2022/03/11 02:36:51;;;;;;;12.70;6.77;;;8.30;99.90;;;;;;4084124;29;20187;-90
2022/03/11 02:38:54;;;;;;;12.20;6.23;;;8.20;99.90;;;;;;4068880;29;20216;-91
2022/03/11 02:40:57;;;;;;;10.17;6.33;;;8.20;99.90;;;;;;4068578;29;20177;-92
2022/03/11 02:42:58;;;;;;;10.27;5.77;;;8.10;99.90;;;;;;4084224;29;20171;-92
2022/03/11 02:45:00;;;;;;;10.60;6.17;;;8.10;99.90;;;;;;4068688;29;20273;-90
2022/03/11 02:47:01;;;;;;;11.37;5.90;;;8.10;99.90;;;;;;4100156;29;20330;-92
2022/03/11 02:49:02;;;;;;;11.37;6.20;;;8.20;99.90;;;;;;4084337;29;20643;-90
2022/03/11 02:51:04;;;;;;;9.83;5.60;;;8.10;99.90;;;;;;4068510;29;20850;-90
2022/03/11 02:53:05;;;;;;;10.87;5.60;;;8.10;99.90;;;;;;4068585;29;20212;-92
2022/03/11 02:55:06;;;;;;;8.83;5.23;;;8.10;99.90;;;;;;4068390;29;20199;-92
2022/03/11 02:57:07;;;;;;;14.23;5.80;;;8.00;99.90;;;;;;4068390;29;20173;-92
2022/03/11 02:59:07;;;;;;;13.43;5.67;;;8.00;99.90;;;;;;4068014;29;20259;-90
2022/03/11 03:01:09;;;;;;;11.43;5.97;;;8.00;99.90;;;;;;4068482;29;20172;-92
2022/03/11 03:03:10;;;;;;;10.50;5.73;;;8.00;99.90;;;;;;4068454;29;20176;-93
2022/03/11 03:05:10;;;;;;;12.30;6.20;;;8.00;99.90;;;;;;4068326;29;20295;-91
2022/03/11 03:07:11;;;;;;;10.77;5.27;;;8.00;99.90;;;;;;4068497;29;20232;-90
2022/03/11 03:09:12;;;;;;;11.17;5.80;;;8.00;99.90;;;;;;4083965;29;20179;-90
2022/03/11 03:11:13;;;;;;;9.43;5.17;;;8.00;99.90;;;;;;4068438;29;20180;-92
2022/03/11 03:13:14;;;;;;;12.47;5.63;;;8.00;99.90;;;;;;4068387;29;20183;-94
2022/03/11 03:15:14;;;;;;;12.70;6.07;;;7.90;99.90;;;;;;4068401;29;20204;-90
2022/03/11 03:17:15;;;;;;;11.20;5.33;;;7.90;99.90;;;;;;4083924;29;20176;-91
2022/03/11 03:19:16;;;;;;;11.53;6.07;;;7.90;99.90;;;;;;4068182;29;20263;-92
2022/03/11 03:21:16;;;;;;;11.63;6.23;;;7.90;99.90;;;;;;4067875;29;20613;-92
2022/03/11 03:23:17;;;;;;;10.50;5.07;;;7.90;99.90;;;;;;4099625;28;20179;-90
2022/03/11 03:25:18;;;;;;;11.47;5.17;;;7.90;99.90;;;;;;4067907;29;20198;-93
2022/03/11 03:27:19;;;;;;;9.40;5.40;;;7.90;99.90;;;;;;4068421;29;20624;-92
2022/03/11 03:29:19;;;;;;;10.17;5.23;;;8.00;99.90;;;;;;4068497;29;20175;-92
2022/03/11 03:31:21;;;;;;;11.97;5.57;;;7.90;99.90;;;;;;4099870;28;20628;-92
2022/03/11 03:33:22;;;;;;;14.17;5.00;;;7.90;99.90;;;;;;4083917;29;20337;-92
2022/03/11 03:35:23;;;;;;;11.73;5.40;;;7.90;99.90;;;;;;4067974;29;20565;-90
2022/03/11 03:37:23;;;;;;;10.20;5.23;;;7.90;99.90;;;;;;4083752;29;20537;-91
2022/03/11 03:39:24;;;;;;;11.47;5.80;;;7.80;99.90;;;;;;4068090;29;20212;-91
2022/03/11 03:41:26;;;;;;;11.23;5.30;;;7.80;99.90;;;;;;4068466;29;20660;-93
2022/03/11 03:43:27;;;;;;;9.47;5.17;;;7.80;99.90;;;;;;4083732;29;20235;-90
2022/03/11 03:45:28;;;;;;;14.53;5.87;;;7.80;99.90;;;;;;4083696;29;20198;-92
2022/03/11 03:47:29;;;;;;;9.87;5.40;;;7.80;99.90;;;;;;4083481;29;20279;-91
2022/03/11 03:49:30;;;;;;;9.90;5.87;;;7.80;99.90;;;;;;4067721;29;20180;-93
2022/03/11 03:51:31;;;;;;;9.50;5.40;;;7.80;99.90;;;;;;4067871;29;20275;-92
2022/03/11 03:53:32;;;;;;;10.87;5.67;;;7.70;99.90;;;;;;4067950;29;20199;-93
2022/03/11 03:55:33;;;;;;;11.13;5.73;;;7.70;99.90;;;;;;4083414;29;20281;-91
2022/03/11 03:57:34;;;;;;;13.03;5.37;;;7.60;99.90;;;;;;4067997;29;20653;-91
2022/03/11 03:59:34;;;;;;;14.43;6.10;;;7.60;99.90;;;;;;4083249;29;20278;-91
2022/03/11 04:01:36;;;;;;;14.77;5.90;;;7.60;99.90;;;;;;4083191;29;20187;-92
2022/03/11 04:03:37;;;;;;;10.80;5.80;;;7.60;99.90;;;;;;4067866;29;20173;-91
2022/03/11 04:05:38;;;;;;;9.93;5.67;;;7.60;99.90;;;;;;4083518;29;20200;-91
2022/03/11 04:07:40;;;;;;;11.87;5.77;;;7.60;99.90;;;;;;4068030;29;20650;-92
2022/03/11 04:09:41;;;;;;;17.07;6.17;;;7.60;99.90;;;;;;4067817;29;20661;-90
2022/03/11 04:11:42;;;;;;;14.63;6.20;;;7.60;99.90;;;;;;4083787;29;20182;-89
2022/03/11 04:13:43;;;;;;;15.33;5.33;;;7.50;99.90;;;;;;4068082;29;20179;-92
2022/03/11 04:15:43;;;;;;;8.87;5.40;;;7.50;99.90;;;;;;4083579;29;20270;-92
2022/03/11 04:17:44;;;;;;;11.63;6.13;;;7.50;99.90;;;;;;4083765;29;20174;-92
2022/03/11 04:19:45;;;;;;;12.17;6.27;;;7.40;99.90;;;;;;4067673;29;20219;-91
2022/03/11 04:21:45;;;;;;;16.03;5.77;;;7.40;99.90;;;;;;4083351;29;20172;-91
2022/03/11 04:23:49;;;;;;;10.73;5.80;;;7.50;99.90;;;;;;4083516;29;20263;-92
2022/03/11 04:25:49;;;;;;;17.47;6.00;;;7.40;99.90;;;;;;4083345;29;20247;-92
2022/03/11 04:27:50;;;;;;;12.43;5.77;;;7.40;99.90;;;;;;4085721;29;20183;-92
2022/03/11 04:29:54;;;;;;;13.93;5.83;;;7.40;99.90;;;;;;4071190;29;20175;-92
2022/03/11 04:31:57;;;;;;;10.90;5.20;;;7.40;99.90;;;;;;4086428;29;20183;-91
2022/03/11 04:33:58;;;;;;;12.53;6.20;;;7.40;99.90;;;;;;4070264;29;20165;-92
2022/03/11 04:35:58;;;;;;;12.77;5.63;;;7.40;99.90;;;;;;4070351;29;20200;-92
2022/03/11 04:37:59;;;;;;;11.77;5.80;;;7.30;99.90;;;;;;4101916;28;20626;-92
2022/03/11 04:40:00;;;;;;;10.87;5.60;;;7.30;99.90;;;;;;4086266;29;20214;-92
2022/03/11 04:42:01;;;;;;;11.93;5.90;;;7.30;99.90;;;;;;4070705;29;20169;-92
2022/03/11 04:44:03;;;;;;;11.03;5.47;;;7.30;99.90;;;;;;4086475;29;20183;-91
2022/03/11 04:46:04;;;;;;;9.83;5.43;;;7.30;99.90;;;;;;4070261;29;20636;-90
2022/03/11 04:48:04;;;;;;;12.40;5.77;;;7.20;99.90;;;;;;4070554;29;20188;-93
2022/03/11 04:50:06;;;;;;;10.43;5.53;;;7.10;99.90;;;;;;4086102;29;20577;-91
2022/03/11 04:52:07;;;;;;;10.80;5.90;;;7.10;99.90;;;;;;4086134;29;20183;-92
2022/03/11 04:54:08;;;;;;;12.20;5.63;;;7.10;99.90;;;;;;4070488;29;20177;-91
2022/03/11 04:56:09;;;;;;;11.97;5.77;;;7.10;99.90;;;;;;4069814;29;20276;-91
2022/03/11 04:58:10;;;;;;;11.47;5.97;;;7.10;99.90;;;;;;4085790;29;20171;-91
2022/03/11 05:00:12;;;;;;;19.00;6.77;;;7.10;99.90;;;;;;4069817;29;20219;-91
2022/03/11 05:02:12;;;;;;;13.33;5.67;;;7.10;99.90;;;;;;4069702;29;20203;-90
2022/03/11 05:04:13;;;;;;;13.00;6.60;;;7.00;99.90;;;;;;4069717;29;20176;-92
2022/03/11 05:06:14;;;;;;;11.47;5.87;;;7.00;99.90;;;;;;4069993;29;20178;-89
2022/03/11 05:08:16;;;;;;;8.10;5.00;;;7.10;99.90;;;;;;4101444;28;20183;-91
2022/03/11 05:10:16;;;;;;;16.00;5.43;;;7.10;99.90;;;;;;4070023;29;20176;-92
2022/03/11 05:12:17;;;;;;;16.60;6.60;;;7.10;99.90;;;;;;4070027;29;20172;-92
2022/03/11 05:14:18;;;;;;;11.53;5.63;;;7.10;99.90;;;;;;4069317;29;20181;-89
2022/03/11 05:16:18;;;;;;;16.63;6.40;;;7.10;99.90;;;;;;4085651;29;20696;-92
2022/03/11 05:18:19;;;;;;;13.03;6.63;;;7.10;99.90;;;;;;4070116;29;20176;-93
2022/03/11 05:20:20;;;;;;;9.93;5.37;;;7.10;99.90;;;;;;4085557;29;20229;-90
2022/03/11 05:22:20;;;;;;;15.20;6.77;;;7.10;99.90;;;;;;4069736;29;20172;-92
2022/03/11 05:24:22;;;;;;;14.70;6.40;;;7.20;99.90;;;;;;4069571;29;20196;-89
2022/03/11 05:26:25;;;;;;;15.73;6.43;;;7.20;99.90;;;;;;4069586;29;20271;-91
2022/03/11 05:28:26;;;;;;;12.03;6.60;;;7.20;99.90;;;;;;4069634;29;20180;-91
2022/03/11 05:30:26;;;;;;;14.33;6.73;;;7.20;99.90;;;;;;4085508;29;20254;-89
2022/03/11 05:32:27;;;;;;;15.83;6.87;;;7.20;99.90;;;;;;4085236;29;20228;-90
2022/03/11 05:34:28;;;;;;;13.43;6.17;;;7.20;99.90;;;;;;4069314;29;20176;-89
2022/03/11 05:36:29;;;;;;;12.83;6.27;;;7.10;99.90;;;;;;4069278;29;20204;-92
2022/03/11 05:38:29;;;;;;;14.20;6.33;;;7.00;99.90;;;;;;4068643;29;20522;-91
2022/03/11 05:40:32;;;;;;;12.27;6.70;;;7.10;99.90;;;;;;4069531;29;20223;-90
2022/03/11 05:42:36;;;;;;;12.97;7.20;;;7.10;99.90;;;;;;4069810;29;20208;-92
2022/03/11 05:44:40;;;;;;;13.57;6.97;;;7.20;99.90;;;;;;4085202;29;20722;-89
2022/03/11 05:46:41;;;;;;;14.60;6.83;;;7.30;99.90;;;;;;4068816;29;20192;-92
2022/03/11 05:48:42;;;;;;;13.57;6.43;;;7.30;99.90;;;;;;4069204;29;20717;-90
2022/03/11 05:50:42;;;;;;;13.30;6.10;;;7.20;99.90;;;;;;4101338;28;20171;-91
2022/03/11 05:52:45;;;;;;;15.90;6.77;;;7.10;99.90;;;;;;4085154;29;20771;-89
2022/03/11 05:54:45;;;;;;;15.40;7.27;;;7.10;99.90;;;;;;4069119;29;20193;-92
2022/03/11 05:56:50;;;;;;;14.27;7.07;;;7.10;99.90;;;;;;4085164;29;20172;-92
2022/03/11 05:58:50;;;;;;;12.90;6.53;;;7.00;99.90;;;;;;4069199;29;20227;-91
2022/03/11 06:00:51;;;;;;;16.43;7.40;;;6.90;99.90;;;;;;4085236;29;20677;-92
2022/03/11 06:02:52;;;;;;;17.00;7.47;;;6.90;99.90;;;;;;4069086;29;20191;-91
2022/03/11 06:04:53;;;;;;;15.23;6.50;;;6.90;99.90;;;;;;4084551;29;20203;-92
2022/03/11 06:06:53;;;;;;;19.07;7.37;;;6.90;99.90;;;;;;4069169;29;20657;-92
2022/03/11 06:08:54;;;;;;;12.50;6.60;;;6.90;99.90;;;;;;4084561;29;20278;-92
2022/03/11 06:10:54;;;;;;;12.80;6.90;;;6.90;99.90;;;;;;4068845;29;20169;-89
2022/03/11 06:12:55;;;;;;;14.87;7.20;;;6.90;99.90;;;;;;4084590;29;20227;-91
2022/03/11 06:14:57;;;;;;;15.50;7.23;;;7.00;99.90;;;;;;4068834;29;20188;-92
2022/03/11 06:16:57;;;;;;;15.30;7.53;;;7.00;99.90;;;;;;4068960;29;20231;-91
2022/03/11 06:18:58;;;;;;;14.10;6.57;;;7.00;99.90;;;;;;4084560;29;20199;-92
2022/03/11 06:20:59;;;;;;;18.93;7.77;;;7.00;99.90;;;;;;4069325;29;20188;-92
2022/03/11 06:23:00;;;;;;;14.13;7.40;;;7.00;99.90;;;;;;4084700;29;20172;-91
2022/03/11 06:25:01;;;;;;;13.40;6.80;;;7.00;99.90;;;;;;4068545;29;20202;-91
2022/03/11 06:27:02;;;;;;;15.93;6.57;;;7.10;99.90;;;;;;4084782;29;20179;-91
2022/03/11 06:29:03;;;;;;;13.67;6.87;;;7.10;99.90;;;;;;4084227;29;20211;-90
2022/03/11 06:31:04;;;;;;;18.20;7.80;;;7.10;99.90;;;;;;4068729;29;20182;-92
2022/03/11 06:33:06;;;;;;;15.77;6.97;;;7.10;99.90;;;;;;4084204;29;20211;-89
2022/03/11 06:35:07;;;;;;;13.60;7.20;;;7.20;99.90;;;;;;4068231;29;20239;-91
2022/03/11 06:37:08;;;;;;;17.03;7.53;;;7.40;99.90;;;;;;4084562;29;20673;-92
2022/03/11 06:39:11;;;;;;;15.27;7.87;;;7.50;99.90;;;;;;4069662;29;20211;-92
2022/03/11 06:41:12;;;;;;;17.87;8.00;;;7.60;99.90;;;;;;4069245;29;20191;-92
2022/03/11 06:43:13;;;;;;;17.90;8.03;;;7.80;99.90;;;;;;4069228;29;20183;-89
2022/03/11 06:45:16;;;;;;;16.77;7.97;;;7.90;99.90;;;;;;4084127;29;20195;-91
2022/03/11 06:47:17;;;;;;;15.53;7.77;;;7.80;99.90;;;;;;4068460;29;20188;-91
2022/03/11 06:49:18;;;;;;;18.10;7.23;;;7.90;99.90;;;;;;4084141;29;20175;-93
2022/03/11 06:51:18;;;;;;;14.83;7.77;;;8.00;99.90;;;;;;4069410;29;20176;-91
2022/03/11 06:53:25;;;;;;;16.17;7.73;;;8.20;99.90;;;;;;4069638;29;20180;-92
2022/03/11 06:55:26;;;;;;;21.97;8.13;;;8.60;99.90;;;;;;4076091;29;20203;-91
2022/03/11 06:57:26;;;;;;;17.20;8.20;;;9.00;99.90;;;;;;4074239;29;20186;-92
2022/03/11 06:59:27;;;;;;;15.57;7.73;;;9.50;99.90;;;;;;4086614;29;20212;-90
2022/03/11 07:01:28;;;;;;;19.03;7.97;;;10.00;99.90;;;;;;4068343;29;20187;-91
2022/03/11 07:03:28;;;;;;;21.00;8.70;;;10.20;99.90;;;;;;4084423;29;20201;-91
2022/03/11 07:05:30;;;;;;;15.30;8.27;;;10.20;99.90;;;;;;4083913;29;20251;-91
2022/03/11 07:07:33;;;;;;;19.60;8.40;;;10.30;99.90;;;;;;4084386;29;20178;-91
2022/03/11 07:09:34;;;;;;;16.67;7.87;;;10.50;99.90;;;;;;4069379;29;20194;-89
2022/03/11 07:11:35;;;;;;;18.07;8.40;;;10.90;99.90;;;;;;4068961;29;20184;-92
2022/03/11 07:13:36;;;;;;;14.40;7.70;;;11.00;99.90;;;;;;4084538;29;20175;-92
2022/03/11 07:15:36;;;;;;;16.07;7.73;;;11.00;99.90;;;;;;4068393;29;20192;-94
2022/03/11 07:17:37;;;;;;;20.77;7.93;;;11.40;99.90;;;;;;4084141;29;20184;-93
2022/03/11 07:19:39;;;;;;;15.63;8.10;;;11.60;99.90;;;;;;4084244;29;20235;-88
2022/03/11 07:21:40;;;;;;;14.80;7.60;;;12.00;99.90;;;;;;4068657;29;20176;-90
2022/03/11 07:23:41;;;;;;;17.30;8.40;;;12.50;99.90;;;;;;4084052;29;20182;-88
2022/03/11 07:25:41;;;;;;;15.50;9.07;;;12.50;99.90;;;;;;4067978;29;20204;-90
2022/03/11 07:27:42;;;;;;;13.27;8.57;;;12.60;99.90;;;;;;4068508;29;20200;-88
2022/03/11 07:29:43;;;;;;;20.73;8.40;;;12.60;99.90;;;;;;4083915;29;20168;-90
2022/03/11 07:31:45;;;;;;;22.02;9.52;;;12.40;99.90;;;;;;4068333;29;20168;-90
2022/03/11 07:33:46;;;;;;;19.95;8.50;;;12.30;99.90;;;;;;4068047;29;20172;-89
2022/03/11 07:35:46;;;;;;;18.73;8.90;;;12.80;99.90;;;;;;4068242;29;20239;-91
2022/03/11 07:37:47;;;;;;;18.40;9.48;;;13.10;99.90;;;;;;4083878;29;20211;-90
2022/03/11 07:39:49;;;;;;;18.35;9.05;;;12.90;99.90;;;;;;4083927;29;20708;-89
2022/03/11 07:41:49;;;;;;;17.70;9.23;;;12.50;99.90;;;;;;4083777;29;20518;-91
2022/03/11 07:43:50;;;;;;;17.85;8.55;;;12.60;99.90;;;;;;4067942;29;20210;-90
2022/03/11 07:45:52;;;;;;;14.50;8.63;;;12.60;99.90;;;;;;4099242;28;20699;-92
2022/03/11 07:47:52;;;;;;;19.10;8.48;;;13.10;99.90;;;;;;4068475;29;20251;-91
2022/03/11 07:49:53;;;;;;;16.80;8.45;;;13.60;99.90;;;;;;4083655;29;20180;-87
2022/03/11 07:51:54;;;;;;;12.57;8.75;;;14.00;99.90;;;;;;4083784;29;20176;-91
2022/03/11 07:53:55;;;;;;;14.43;7.07;;;13.70;99.90;;;;;;4083499;29;20184;-90
2022/03/11 07:55:56;;;;;;;16.15;7.93;;;13.70;99.90;;;;;;4083575;29;20195;-92
2022/03/11 07:57:56;;;;;;;12.98;7.43;;;13.60;99.90;;;;;;4068152;29;20176;-88
2022/03/11 07:59:58;;;;;;;13.43;7.57;;;14.00;99.90;;;;;;4068202;29;20581;-91
2022/03/11 08:02:05;;;;;;;16.75;7.95;;;13.90;99.90;;;;;;4085319;29;20187;-93
2022/03/11 08:04:06;;;;;;;14.30;7.85;;;13.50;99.90;;;;;;4087038;29;20693;-91
2022/03/11 08:06:10;;;;;;;13.35;7.15;;;13.80;99.90;;;;;;4087081;29;20291;-90
2022/03/11 08:08:11;;;;;;;14.80;7.80;;;13.60;99.90;;;;;;4071435;29;20251;-92
2022/03/11 08:10:12;;;;;;;14.93;8.38;;;14.00;99.90;;;;;;4071015;29;20180;-91
2022/03/11 08:12:15;;;;;;;15.25;7.55;;;14.40;99.90;;;;;;4071150;29;20179;-92
2022/03/11 08:14:16;;;;;;;14.57;8.50;;;14.50;99.90;;;;;;4086601;29;20192;-91
2022/03/11 08:16:17;;;;;;;14.75;8.20;;;14.70;99.90;;;;;;4070868;29;20674;-93
2022/03/11 08:18:18;;;;;;;12.57;8.00;;;15.30;99.90;;;;;;4086361;29;20540;-89
2022/03/11 08:20:18;;;;;;;14.93;8.00;;;15.30;99.90;;;;;;4070659;29;20291;-93
2022/03/11 08:22:19;;;;;;;13.27;8.10;;;15.50;99.90;;;;;;4086411;29;20176;-93
2022/03/11 08:24:21;;;;;;;14.05;8.73;;;15.90;99.90;;;;;;4071173;29;20263;-93
2022/03/11 08:26:22;;;;;;;15.82;7.70;;;15.40;99.90;;;;;;4070612;29;20211;-90
2022/03/11 08:28:24;;;;;;;13.93;8.57;;;15.30;99.90;;;;;;4081234;29;20187;-92
2022/03/11 08:30:25;;;;;;;17.42;8.38;;;15.40;99.90;;;;;;4082848;29;20199;-91
2022/03/11 08:32:26;;;;;;;15.57;8.48;;;15.10;99.90;;;;;;4090699;29;20188;-90
2022/03/11 08:34:27;;;;;;;14.73;8.30;;;15.20;99.90;;;;;;4079376;29;20184;-91
2022/03/11 08:36:27;;;;;;;12.63;8.10;;;15.70;99.90;;;;;;4070485;29;20180;-89
2022/03/11 08:38:28;;;;;;;15.57;7.40;;;15.60;99.90;;;;;;4086422;29;20186;-92
2022/03/11 08:40:29;;;;;;;19.38;8.27;;;15.40;99.90;;;;;;4070559;29;20207;-92
2022/03/11 08:42:30;;;;;;;14.73;8.07;;;15.70;99.90;;;;;;4070978;29;20657;-92
2022/03/11 08:44:31;;;;;;;13.43;8.55;;;15.70;99.90;;;;;;4070531;29;20696;-93
2022/03/11 08:46:32;;;;;;;19.98;9.00;;;15.90;99.90;;;;;;4070083;29;20191;-92
2022/03/11 08:48:33;;;;;;;16.80;8.35;;;16.60;99.90;;;;;;4070324;29;20194;-90
2022/03/11 08:50:34;;;;;;;13.38;8.25;;;16.80;99.90;;;;;;4086347;29;20186;-90
2022/03/11 08:52:36;;;;;;;14.15;8.20;;;16.90;99.90;;;;;;4070410;29;20203;-92
2022/03/11 08:54:37;;;;;;;18.25;8.60;;;16.80;99.90;;;;;;4070338;29;20203;-93
2022/03/11 08:56:39;;;;;;;16.20;7.97;;;17.20;99.90;;;;;;4070384;29;20665;-90
2022/03/11 08:58:40;;;;;;;17.58;8.18;;;17.10;99.90;;;;;;4070171;29;20216;-93
2022/03/11 09:00:41;;;;;;;13.10;8.02;;;17.20;99.90;;;;;;4086346;29;20226;-94
2022/03/11 09:02:42;;;;;;;14.63;7.97;;;17.70;99.90;;;;;;4071934;29;20212;-92
2022/03/11 09:04:43;;;;;;;15.05;8.25;;;17.50;99.90;;;;;;4086815;29;20279;-94
2022/03/11 09:06:44;;;;;;;12.60;7.97;;;17.20;99.90;;;;;;4087524;29;20207;-91
2022/03/11 09:08:44;;;;;;;12.52;7.90;;;17.10;99.90;;;;;;4073254;29;20218;-93
2022/03/11 09:10:45;;;;;;;10.85;7.90;;;17.20;99.90;;;;;;4085952;29;20175;-93
2022/03/11 09:12:47;;;;;;;29.15;8.70;;;17.20;99.90;;;;;;4085401;29;20560;-94
2022/03/11 09:14:47;;;;;;;15.35;8.02;;;17.20;99.90;;;;;;4069798;29;20207;-94
2022/03/11 09:16:48;;;;;;;13.45;7.18;;;17.60;99.90;;;;;;4069333;29;20176;-92
2022/03/11 09:18:49;;;;;;;13.93;9.10;;;17.70;99.90;;;;;;4085900;29;20175;-94
2022/03/11 09:20:50;;;;;;;13.90;7.95;;;17.60;99.90;;;;;;4069768;29;20188;-92
2022/03/11 09:22:50;;;;;;;11.73;8.25;;;17.50;99.90;;;;;;4085698;29;20266;-94
2022/03/11 09:24:51;;;;;;;13.50;7.32;;;17.30;99.90;;;;;;4085499;29;20195;-91
2022/03/11 09:26:52;;;;;;;12.20;7.00;;;17.50;99.90;;;;;;4085569;29;20179;-94
2022/03/11 09:28:52;;;;;;;14.40;7.88;;;17.20;99.90;;;;;;4069892;29;20240;-95
2022/03/11 09:30:53;;;;;;;17.33;7.68;;;16.40;99.90;;;;;;4069772;29;20182;-92
2022/03/11 09:32:54;;;;;;;16.10;8.80;;;16.80;99.90;;;;;;4101183;28;20182;-92
2022/03/11 09:34:55;;;;;;;14.10;9.15;;;16.50;99.90;;;;;;4085239;29;20227;-95
2022/03/11 09:36:55;;;;;;;12.55;7.45;;;16.10;99.90;;;;;;4069661;29;20235;-95
2022/03/11 09:38:56;;;;;;;18.65;8.82;;;16.00;99.90;;;;;;4069979;29;20181;-96
2022/03/11 09:40:58;;;;;;;20.92;8.40;;;16.10;99.90;;;;;;4069709;29;20629;-94
2022/03/11 09:43:00;;;;;;;12.70;8.25;;;16.60;99.90;;;;;;4085824;29;20673;-94
2022/03/11 09:45:03;;;;;;;12.43;7.55;;;16.10;99.90;;;;;;4085460;29;20925;-94
2022/03/11 09:47:06;;;;;;;16.95;7.65;;;15.70;99.90;;;;;;4085379;29;20183;-94
2022/03/11 09:49:07;;;;;;;16.10;7.50;;;15.60;99.90;;;;;;4085482;29;20163;-94
2022/03/11 09:51:10;;;;;;;17.38;7.63;;;16.10;99.90;;;;;;4085460;29;20192;-91
2022/03/11 09:53:12;;;;;;;14.50;7.82;;;16.20;99.90;;;;;;4085460;29;20230;-92
2022/03/11 09:55:13;;;;;;;12.82;7.65;;;16.00;99.90;;;;;;4085327;29;20211;-91
2022/03/11 09:57:24;;;;;;;12.35;7.20;;;15.70;99.90;;;;;;4085171;29;20171;-91
2022/03/11 09:59:27;;;;;;;15.50;8.20;;;15.60;99.90;;;;;;4085219;29;20553;-91
2022/03/11 10:01:28;;;;;;;13.85;7.97;;;15.80;99.90;;;;;;4085189;29;20172;-91
2022/03/11 10:03:30;;;;;;;9.73;7.13;;;15.80;99.90;;;;;;4069281;29;20187;-94
2022/03/11 10:05:48;;;;;;;16.75;7.50;;;15.80;99.90;;;;;;4069317;29;20188;-92
2022/03/11 10:08:04;;;;;;;12.48;6.50;;;15.50;99.90;;;;;;4069614;29;20180;-92
2022/03/11 10:10:16;;;;;;;12.77;7.15;;;15.00;99.90;;;;;;4084910;29;20502;-94
2022/03/11 10:12:22;;;;;;;15.25;7.57;;;14.60;99.90;;;;;;4084740;29;20254;-94
2022/03/11 10:14:37;;;;;;;10.82;6.45;;;14.60;99.90;;;;;;4084797;29;20206;-91
2022/03/11 10:16:40;;;;;;;13.73;7.07;;;14.80;99.90;;;;;;4085109;29;20183;-93
2022/03/11 10:18:52;;;;;;;15.05;7.28;;;14.50;99.90;;;;;;4085035;29;20171;-91
2022/03/11 10:21:07;;;;;;;14.43;7.32;;;14.70;99.90;;;;;;4084944;29;20609;-91
2022/03/11 10:23:13;;;;;;;13.57;7.38;;;14.70;99.90;;;;;;4084884;29;20599;-92
2022/03/11 10:25:24;;;;;;;11.55;7.18;;;14.90;99.90;;;;;;4084515;29;20210;-96
2022/03/11 10:27:24;;;;;;;12.43;7.05;;;15.00;99.90;;;;;;4084694;29;20198;-91
2022/03/11 10:29:30;;;;;;;13.07;7.22;;;14.50;99.90;;;;;;4084876;29;20180;-92